Terminal Aerodrome Forecast
Issued by NWS Amarillo, TX

Home | Current Version | Previous Version | Text Only | Print | Product List | Glossary On
Versions: 1 2 3 4 5 6 7 8 9 10 11 12 13 14 15 16 17
000
FTUS44 KAMA 191120
TAFAMA
TAF
KAMA 191120Z 1912/2012 11008KT 3SM BR SCT002 OVC200
      TEMPO 1912/1916 1/4SM FG OVC001
     FM191600 17016KT P6SM SCT015 OVC200
     FM200100 20010KT P6SM BKN150=

USA.gov is the U.S. government's official web portal to all federal, state and local government web resources and services.